Time;durP1;ratioP1;P1;durP2;ratioP2;P2;SDS_P1;SDS_P2;PMS_P1;PMS_P2;Temp;Humidity;BMP_temperature;BMP_pressure;BME280_temperature;BME280_humidity;BME280_pressure;Samples;Min_cycle;Max_cycle;Signal;HPM_P1;HPM_P2
2021/03/12 00:00:31;;;;;;;11.48;6.35;;;;;;;-3.39;89.75;99271.70;1797767;78;21109;-71
2021/03/12 00:03:06;;;;;;;11.25;6.22;;;;;;;-3.39;90.04;99275.97;1780372;79;20982;-71
2021/03/12 00:05:43;;;;;;;12.10;6.30;;;;;;;-3.37;89.72;99263.63;1766210;81;21195;-72
2021/03/12 00:08:13;;;;;;;13.50;6.92;;;;;;;-3.33;88.91;99264.67;1766471;81;20935;-71
2021/03/12 00:10:49;;;;;;;15.18;6.70;;;;;;;-3.34;88.86;99259.92;1767290;79;20958;-72
2021/03/12 00:13:24;;;;;;;13.32;6.30;;;;;;;-3.29;88.15;99270.09;1783666;78;21038;-71
2021/03/12 00:15:56;;;;;;;15.05;6.70;;;;;;;-3.26;87.93;99281.85;1796206;79;20915;-72
2021/03/12 00:18:31;;;;;;;11.97;5.72;;;;;;;-3.25;87.37;99261.70;1728428;81;22273;-72
2021/03/12 00:21:02;;;;;;;12.90;6.47;;;;;;;-3.23;87.46;99261.37;1728313;80;20989;-72
2021/03/12 00:23:35;;;;;;;11.97;6.33;;;;;;;-3.27;87.76;99249.53;1706634;82;21527;-72
2021/03/12 00:26:08;;;;;;;12.78;6.35;;;;;;;-3.29;88.18;99249.45;1799130;78;20934;-72
2021/03/12 00:28:40;;;;;;;15.25;6.35;;;;;;;-3.28;88.57;99242.20;1802336;78;20937;-72
2021/03/12 00:31:14;;;;;;;9.18;6.00;;;;;;;-3.27;88.08;99231.07;1796886;78;21194;-72
2021/03/12 00:33:46;;;;;;;11.53;5.83;;;;;;;-3.26;87.86;99231.55;1800934;78;20938;-72
2021/03/12 00:36:19;;;;;;;;;;;;;;;-3.27;88.59;99223.33;1790106;78;20962;-72
2021/03/12 00:38:50;;;;;;;10.55;6.22;;;;;;;-3.27;88.30;99210.44;1803818;78;20480;-72
2021/03/12 00:41:20;;;;;;;12.37;6.30;;;;;;;-3.30;88.31;99216.73;1800846;78;21472;-72
2021/03/12 00:43:52;;;;;;;11.30;6.50;;;;;;;-3.32;88.62;99204.53;1789848;78;21123;-71
2021/03/12 00:46:50;;;;;;;19.07;6.20;;;;;;;-3.30;89.14;99213.27;1835882;76;22735;-69
2021/03/12 00:49:23;;;;;;;11.43;6.22;;;;;;;-3.37;89.76;99204.31;1804540;78;20891;-73
2021/03/12 00:51:57;;;;;;;14.53;6.03;;;;;;;-3.38;90.45;99188.77;1794049;79;22595;-73
2021/03/12 00:54:30;;;;;;;10.15;6.42;;;;;;;-3.40;90.14;99177.08;1777902;79;21001;-72
2021/03/12 00:57:04;;;;;;;14.10;6.42;;;;;;;-3.40;90.10;99186.11;1777791;79;21112;-72
2021/03/12 00:59:36;;;;;;;9.35;6.08;;;;;;;-3.43;90.90;99175.64;1725107;81;21603;-72
2021/03/12 01:02:11;;;;;;;12.37;6.10;;;;;;;-3.44;91.21;99169.13;1718897;82;20990;-72
2021/03/12 01:04:45;;;;;;;11.63;6.42;;;;;;;-3.47;91.61;99171.14;1724971;81;21400;-73
2021/03/12 01:07:18;;;;;;;8.95;5.53;;;;;;;-3.49;91.54;99161.16;1716805;82;21010;-72
2021/03/12 01:09:49;;;;;;;8.93;4.90;;;;;;;-3.53;91.99;99155.37;1725688;81;20946;-72
2021/03/12 01:12:27;;;;;;;14.05;6.58;;;;;;;-3.56;92.68;99143.62;1687537;83;20922;-72
2021/03/12 01:14:57;;;;;;;11.57;6.08;;;;;;;-3.58;93.22;99134.52;1710077;82;21002;-72
2021/03/12 01:17:29;;;;;;;11.33;6.17;;;;;;;-3.58;93.46;99128.48;1722203;81;21317;-70
2021/03/12 01:20:07;;;;;;;9.95;5.50;;;;;;;-3.61;93.97;99125.75;1714826;83;21724;-70
2021/03/12 01:22:47;;;;;;;14.43;5.53;;;;;;;-3.65;94.53;99114.41;1738253;80;21485;-72
2021/03/12 01:25:20;;;;;;;11.80;6.10;;;;;;;-3.69;94.33;99110.32;1741097;79;20902;-72
2021/03/12 01:27:53;;;;;;;14.50;6.17;;;;;;;-3.70;94.87;99113.70;1715125;82;20922;-72
2021/03/12 01:30:39;;;;;;;10.08;5.72;;;;;;;-3.73;95.18;99127.33;1743240;82;21226;-73
2021/03/12 01:33:18;;;;;;;14.87;5.87;;;;;;;-3.76;95.27;99106.56;1754263;79;21335;-72
2021/03/12 01:35:51;;;;;;;11.33;6.22;;;;;;;-3.76;95.65;99102.69;1715111;82;20938;-70
2021/03/12 01:38:21;;;;;;;11.65;6.20;;;;;;;-3.78;96.20;99100.81;1724926;81;20894;-70
2021/03/12 01:40:57;;;;;;;10.65;6.00;;;;;;;-3.80;97.03;99091.72;1717035;82;21551;-70
2021/03/12 01:43:27;;;;;;;11.93;6.05;;;;;;;-3.83;97.80;99087.30;1691431;83;21379;-72
2021/03/12 01:45:58;;;;;;;12.27;5.77;;;;;;;-3.84;98.28;99104.86;1740891;80;21140;-72
2021/03/12 01:48:31;;;;;;;12.73;6.92;;;;;;;-3.85;98.97;99103.50;1747770;82;21621;-73
2021/03/12 01:51:05;;;;;;;10.48;6.08;;;;;;;-3.84;99.92;99107.84;1745575;82;21476;-72
2021/03/12 01:53:37;;;;;;;12.07;6.35;;;;;;;-3.84;100.00;99103.57;1747597;82;20989;-72
2021/03/12 01:56:07;;;;;;;9.95;5.92;;;;;;;-3.80;100.00;99097.76;1747794;82;21519;-72
2021/03/12 01:58:43;;;;;;;11.30;6.17;;;;;;;-3.74;100.00;99095.03;1747144;81;21029;-72
2021/03/12 02:01:18;;;;;;;11.70;7.00;;;;;;;-3.72;100.00;99083.99;1744655;81;20971;-72
2021/03/12 02:03:51;;;;;;;11.48;6.67;;;;;;;-3.71;100.00;99090.03;1746028;82;20945;-72
2021/03/12 02:06:23;;;;;;;10.30;6.12;;;;;;;-3.69;100.00;99081.97;1745454;82;21176;-72
2021/03/12 02:08:53;;;;;;;10.30;6.20;;;;;;;-3.67;100.00;99083.80;1747205;82;21370;-72
2021/03/12 02:11:28;;;;;;;12.20;6.58;;;;;;;-3.67;100.00;99070.92;1743966;82;20946;-72
2021/03/12 02:14:10;;;;;;;11.03;6.67;;;;;;;-3.65;100.00;99065.84;1746974;81;20934;-72
2021/03/12 02:16:54;;;;;;;15.75;7.20;;;;;;;-3.62;100.00;99075.00;1744708;82;21071;-73
2021/03/12 02:20:21;;;;;;;11.10;6.62;;;;;;;-3.61;100.00;99067.34;1747490;81;21002;-72
2021/03/12 02:22:56;;;;;;;12.03;6.42;;;;;;;-3.59;100.00;99068.30;1719659;82;22276;-70
2021/03/12 02:25:26;;;;;;;11.90;6.58;;;;;;;-3.55;100.00;99059.02;1713626;81;21023;-67
2021/03/12 02:28:02;;;;;;;10.32;6.65;;;;;;;-3.55;100.00;99042.26;1698501;82;21073;-68
2021/03/12 02:30:33;;;;;;;10.20;6.75;;;;;;;-3.56;100.00;99043.95;1722236;82;20949;-68
2021/03/12 02:33:07;;;;;;;12.68;7.17;;;;;;;-3.56;100.00;99028.48;1732638;82;21017;-70
2021/03/12 02:35:41;;;;;;;11.53;7.22;;;;;;;-3.58;100.00;99027.53;1751511;80;21060;-70
2021/03/12 02:38:15;;;;;;;16.85;7.65;;;;;;;-3.60;100.00;99024.00;1744376;80;21035;-72
2021/03/12 02:40:47;;;;;;;10.20;6.58;;;;;;;-3.60;100.00;99002.08;1750185;82;21587;-70
2021/03/12 02:43:30;;;;;;;16.62;7.37;;;;;;;-3.61;100.00;98999.03;1739740;82;20962;-70
2021/03/12 02:46:02;;;;;;;11.68;6.95;;;;;;;-3.65;100.00;99005.26;1723643;82;20935;-72
2021/03/12 02:48:34;;;;;;;10.70;6.80;;;;;;;-3.69;100.00;99002.94;1751170;82;21375;-70
2021/03/12 02:51:07;;;;;;;13.58;7.37;;;;;;;-3.68;100.00;99003.42;1743504;79;21151;-70
2021/03/12 02:53:43;;;;;;;;;;;;;;;-3.71;100.00;98981.37;1751815;82;20966;-72
2021/03/12 02:56:14;;;;;;;14.58;7.45;;;;;;;-3.71;100.00;98958.57;1751189;80;20522;-72
2021/03/12 02:58:48;;;;;;;13.80;7.35;;;;;;;-3.73;100.00;98943.04;1761870;79;21033;-72
2021/03/12 03:01:20;;;;;;;11.55;7.15;;;;;;;-3.78;100.00;98940.66;1781570;79;21278;-72
2021/03/12 03:04:00;;;;;;;13.10;7.55;;;;;;;-3.76;100.00;98944.19;1809992;78;22138;-70
2021/03/12 03:06:50;;;;;;;11.12;7.05;;;;;;;-3.82;100.00;98951.59;1779787;79;20922;-71
2021/03/12 03:09:24;;;;;;;11.97;7.03;;;;;;;-3.83;100.00;98953.70;1779448;79;21487;-71
2021/03/12 03:11:54;;;;;;;11.35;7.53;;;;;;;-3.83;100.00;98938.23;1749067;80;20899;-71
2021/03/12 03:14:31;;;;;;;14.00;7.33;;;;;;;-3.84;100.00;98945.08;1693583;83;20985;-71
2021/03/12 03:17:01;;;;;;;12.20;7.33;;;;;;;-3.85;100.00;98925.28;1701057;81;20946;-68
2021/03/12 03:19:33;;;;;;;16.00;7.67;;;;;;;-3.82;100.00;98906.50;1722021;80;20982;-71
2021/03/12 03:22:03;;;;;;;15.40;7.25;;;;;;;-3.83;100.00;98912.06;1739289;80;21212;-71
2021/03/12 03:24:34;;;;;;;12.07;7.70;;;;;;;-3.84;100.00;98921.89;1725191;81;21018;-71
2021/03/12 03:27:07;;;;;;;15.28;8.00;;;;;;;-3.83;100.00;98920.20;1716889;82;21547;-71
2021/03/12 03:29:40;;;;;;;16.40;7.55;;;;;;;-3.83;100.00;98931.39;1722123;81;20974;-72
2021/03/12 03:32:12;;;;;;;12.03;7.70;;;;;;;-3.83;100.00;98934.37;1717387;82;21644;-72
2021/03/12 03:34:43;;;;;;;11.80;7.25;;;;;;;-3.81;100.00;98938.78;1736971;80;21470;-72
2021/03/12 03:37:14;;;;;;;14.83;7.47;;;;;;;-3.81;100.00;98927.19;1754611;80;21547;-73
2021/03/12 03:39:45;;;;;;;11.85;7.80;;;;;;;-3.82;100.00;98911.66;1752640;80;21001;-72
2021/03/12 03:42:17;;;;;;;11.10;7.62;;;;;;;-3.81;100.00;98917.28;1726469;81;21151;-65
2021/03/12 03:44:47;;;;;;;13.35;7.40;;;;;;;-3.81;100.00;98937.50;1710369;81;21064;-71
2021/03/12 03:47:19;;;;;;;14.30;7.65;;;;;;;-3.81;100.00;98934.03;1686560;82;21376;-70
2021/03/12 03:50:01;;;;;;;12.15;7.20;;;;;;;-3.75;100.00;98934.35;1833460;76;28165;-72
2021/03/12 03:52:41;;;;;;;14.05;7.47;;;;;;;-3.78;100.00;98928.14;1760639;79;21451;-69
2021/03/12 03:55:13;;;;;;;13.78;7.62;;;;;;;-3.75;100.00;98925.33;1785570;78;21354;-68
2021/03/12 03:57:43;;;;;;;16.80;7.50;;;;;;;-3.77;100.00;98917.94;1725145;81;20998;-68
2021/03/12 04:00:16;;;;;;;13.10;7.70;;;;;;;-3.78;100.00;98913.97;1717047;82;20998;-68
2021/03/12 04:02:48;;;;;;;12.20;7.22;;;;;;;-3.75;100.00;98924.05;1729044;82;20930;-69
2021/03/12 04:05:20;;;;;;;15.28;7.55;;;;;;;-3.74;100.00;98924.52;1742105;80;20922;-70
2021/03/12 04:07:54;;;;;;;13.83;7.47;;;;;;;-3.75;100.00;98908.98;1734253;80;21038;-70
2021/03/12 04:10:24;;;;;;;15.20;7.12;;;;;;;-3.76;100.00;98922.69;1721883;81;21028;-71
2021/03/12 04:12:53;;;;;;;15.05;7.53;;;;;;;-3.77;100.00;98902.87;1736883;80;21126;-68
2021/03/12 04:15:24;;;;;;;11.95;7.80;;;;;;;-3.76;100.00;98882.73;1741632;80;21038;-70
2021/03/12 04:17:55;;;;;;;18.00;7.97;;;;;;;-3.77;100.00;98880.56;1729322;80;21030;-69
2021/03/12 04:20:26;;;;;;;12.70;7.50;;;;;;;-3.78;100.00;98880.46;1695313;82;21331;-64
2021/03/12 04:22:57;;;;;;;32.63;8.38;;;;;;;-3.80;100.00;98867.51;1720904;82;21611;-69
2021/03/12 04:25:29;;;;;;;15.65;7.62;;;;;;;-3.80;100.00;98853.33;1722934;82;21170;-67
2021/03/12 04:28:01;;;;;;;11.83;7.15;;;;;;;-3.78;100.00;98859.47;1720912;82;21113;-68
2021/03/12 04:30:31;;;;;;;12.13;7.08;;;;;;;-3.77;100.00;98833.30;1705012;82;21560;-68
2021/03/12 04:33:02;;;;;;;13.48;7.78;;;;;;;-3.80;100.00;98818.14;1687479;83;21203;-68
2021/03/12 04:35:34;;;;;;;10.58;6.90;;;;;;;-3.82;100.00;98834.34;1723068;82;21476;-69
2021/03/12 04:38:05;;;;;;;11.35;7.12;;;;;;;-3.85;100.00;98811.02;1722903;82;20919;-70
2021/03/12 04:40:34;;;;;;;14.10;7.70;;;;;;;-3.84;100.00;98808.91;1721004;82;20935;-70
2021/03/12 04:43:04;;;;;;;12.23;7.75;;;;;;;-3.87;100.00;98818.67;1722848;82;20991;-69
2021/03/12 04:45:35;;;;;;;12.40;7.15;;;;;;;-3.88;100.00;98813.05;1734402;80;21369;-69
2021/03/12 04:48:06;;;;;;;15.25;8.08;;;;;;;-3.86;100.00;98815.69;1742762;80;20955;-70
2021/03/12 04:50:38;;;;;;;13.35;7.87;;;;;;;-3.87;100.00;98817.80;1715593;82;20951;-69
2021/03/12 04:53:08;;;;;;;11.53;6.85;;;;;;;-3.85;100.00;98835.49;1696678;82;21118;-68
2021/03/12 04:55:38;;;;;;;12.55;8.00;;;;;;;-3.85;100.00;98815.77;1716584;82;20985;-69
2021/03/12 04:58:08;;;;;;;14.45;7.72;;;;;;;-3.83;100.00;98832.17;1693976;83;21213;-66
2021/03/12 05:00:39;;;;;;;12.53;7.20;;;;;;;-3.81;100.00;98841.27;1715602;82;21053;-69
2021/03/12 05:03:11;;;;;;;12.25;7.00;;;;;;;-3.75;100.00;98849.70;1710813;82;21011;-69
2021/03/12 05:05:43;;;;;;;13.40;7.95;;;;;;;-3.74;100.00;98852.76;1708285;82;21232;-70
2021/03/12 05:08:14;;;;;;;13.22;7.08;;;;;;;-3.76;100.00;98859.13;1790678;79;21540;-67
2021/03/12 05:11:01;;;;;;;14.43;6.80;;;;;;;-3.75;100.00;98855.74;1793601;78;20942;-68
2021/03/12 05:13:35;;;;;;;14.07;7.28;;;;;;;-3.72;100.00;98867.48;1713635;82;21516;-68
2021/03/12 05:16:06;;;;;;;11.78;6.95;;;;;;;-3.71;100.00;98869.25;1711251;82;20942;-68
2021/03/12 05:18:35;;;;;;;11.43;6.78;;;;;;;-3.69;100.00;98848.69;1739599;81;21045;-68
2021/03/12 05:21:07;;;;;;;11.73;7.00;;;;;;;-3.67;100.00;98849.23;1768612;79;20899;-67
2021/03/12 05:23:36;;;;;;;10.95;7.17;;;;;;;-3.66;100.00;98844.55;1714379;82;21195;-69
2021/03/12 05:26:06;;;;;;;12.45;7.37;;;;;;;-3.66;100.00;98838.11;1734718;81;21160;-70
2021/03/12 05:28:36;;;;;;;13.93;7.55;;;;;;;-3.64;100.00;98831.73;1713789;82;20962;-69
2021/03/12 05:31:07;;;;;;;14.53;7.50;;;;;;;-3.59;100.00;98843.13;1711232;82;21475;-70
2021/03/12 05:33:37;;;;;;;10.45;6.75;;;;;;;-3.57;100.00;98835.05;1712148;82;20919;-70
2021/03/12 05:36:09;;;;;;;13.15;6.75;;;;;;;-3.54;100.00;98837.77;1730070;81;21205;-70
2021/03/12 05:38:40;;;;;;;17.92;6.62;;;;;;;-3.52;100.00;98848.63;1714310;82;20966;-70
2021/03/12 05:41:10;;;;;;;12.65;7.25;;;;;;;-3.45;100.00;98851.06;1711242;82;20979;-70
2021/03/12 05:43:42;;;;;;;12.85;6.12;;;;;;;-3.38;100.00;98862.52;1689402;82;21475;-70
2021/03/12 05:46:13;;;;;;;14.15;6.70;;;;;;;-3.35;100.00;98853.22;1766521;79;21144;-70
2021/03/12 05:48:44;;;;;;;10.82;6.90;;;;;;;-3.31;100.00;98863.27;1714598;81;22242;-70
2021/03/12 05:51:16;;;;;;;9.10;6.22;;;;;;;-3.25;100.00;98858.00;1711265;82;21030;-71
2021/03/12 05:53:46;;;;;;;12.78;6.05;;;;;;;-3.22;100.00;98852.09;1740629;82;20931;-70
2021/03/12 05:56:18;;;;;;;;;;;;;;;-3.16;100.00;98854.93;1794179;78;21089;-70
2021/03/12 05:58:49;;;;;;;22.87;7.60;;;;;;;-3.11;100.00;98861.16;1756841;79;20116;-70
2021/03/12 06:01:19;;;;;;;11.88;6.15;;;;;;;-3.07;100.00;98871.20;1753652;79;21370;-70
2021/03/12 06:03:49;;;;;;;13.68;6.00;;;;;;;-2.98;100.00;98875.06;1791720;78;20923;-70
2021/03/12 06:06:19;;;;;;;12.90;6.03;;;;;;;-2.93;100.00;98876.14;1761627;80;21065;-71
2021/03/12 06:08:50;;;;;;;8.73;5.60;;;;;;;-2.90;100.00;98876.27;1714304;82;20984;-69
2021/03/12 06:11:19;;;;;;;12.88;6.17;;;;;;;-2.88;100.00;98876.33;1715492;81;21062;-70
2021/03/12 06:13:55;;;;;;;12.03;5.95;;;;;;;-2.83;100.00;98873.97;1797740;78;21192;-69
2021/03/12 06:16:49;;;;;;;12.82;5.37;;;;;;;-2.78;100.00;98881.09;1788389;78;21002;-69
2021/03/12 06:19:22;;;;;;;11.78;5.62;;;;;;;-2.76;100.00;98871.71;1797686;78;21749;-68
2021/03/12 06:22:08;;;;;;;10.32;5.47;;;;;;;-2.67;100.00;98883.70;1780656;79;21041;-70
2021/03/12 06:24:39;;;;;;;15.13;5.87;;;;;;;-2.64;100.00;98901.91;1713392;82;21559;-68
2021/03/12 06:27:30;;;;;;;13.35;6.53;;;;;;;-2.56;100.00;98888.02;1729737;81;21596;-69
2021/03/12 06:30:06;;;;;;;13.32;5.65;;;;;;;-2.51;100.00;98898.54;1710201;82;21124;-68
2021/03/12 06:32:48;;;;;;;10.90;6.03;;;;;;;-2.44;100.00;98890.22;1692880;81;21117;-68
2021/03/12 06:35:24;;;;;;;13.20;6.60;;;;;;;-2.36;100.00;98874.66;1716143;82;21497;-68
2021/03/12 06:38:11;;;;;;;10.75;5.62;;;;;;;-2.29;100.00;98868.91;1792638;78;20986;-67
2021/03/12 06:40:48;;;;;;;12.85;6.20;;;;;;;-2.23;100.00;98880.78;1798272;78;21368;-68
2021/03/12 06:43:21;;;;;;;17.65;6.05;;;;;;;-2.14;100.00;98885.42;1797821;78;20946;-67
2021/03/12 06:45:59;;;;;;;10.18;5.65;;;;;;;-2.07;100.00;98882.26;1797537;78;21026;-68
2021/03/12 06:48:33;;;;;;;11.63;5.62;;;;;;;-2.01;100.00;98882.50;1773871;79;20930;-68
2021/03/12 06:51:14;;;;;;;12.60;5.58;;;;;;;-1.97;100.00;98887.84;1693163;83;21123;-68
2021/03/12 06:53:45;;;;;;;9.25;5.40;;;;;;;-1.94;100.00;98887.08;1733995;81;21438;-68
2021/03/12 06:56:17;;;;;;;10.80;5.80;;;;;;;-1.90;100.00;98876.92;1724509;81;20954;-69
2021/03/12 06:59:01;;;;;;;9.15;5.33;;;;;;;-1.80;100.00;98872.13;1840601;78;22712;-69
2021/03/12 07:01:32;;;;;;;10.20;5.42;;;;;;;-1.79;100.00;98872.59;1743121;81;21544;-68
2021/03/12 07:04:15;;;;;;;10.80;5.47;;;;;;;-1.76;100.00;98877.47;1745463;82;22358;-68
2021/03/12 07:07:00;;;;;;;12.10;5.65;;;;;;;-1.68;100.00;98866.13;1670684;83;21005;-68
2021/03/12 07:09:31;;;;;;;14.28;5.60;;;;;;;-1.62;100.00;98873.70;1762746;80;21541;-68
2021/03/12 07:12:05;;;;;;;12.13;5.72;;;;;;;-1.56;100.00;98862.69;1733823;82;21021;-70
2021/03/12 07:14:39;;;;;;;13.48;5.67;;;;;;;-1.52;100.00;98858.52;1740574;81;20988;-68
2021/03/12 07:17:22;;;;;;;16.27;5.53;;;;;;;-1.42;100.00;98858.02;1753956;80;21469;-70
2021/03/12 07:19:55;;;;;;;11.35;6.28;;;;;;;-1.37;100.00;98853.52;1740213;81;20929;-69
2021/03/12 07:22:25;;;;;;;13.22;5.62;;;;;;;-1.30;100.00;98867.14;1715074;82;20943;-67
2021/03/12 07:24:55;;;;;;;15.00;6.10;;;;;;;-1.24;100.00;98857.83;1709733;82;20931;-69
2021/03/12 07:27:25;;;;;;;9.78;5.60;;;;;;;-1.19;100.00;98844.64;1706785;82;20931;-67
2021/03/12 07:30:06;;;;;;;19.57;6.37;;;;;;;-1.18;100.00;98833.05;1735870;81;21281;-66
2021/03/12 07:32:43;;;;;;;12.95;6.20;;;;;;;-1.15;100.00;98837.03;1737869;82;21156;-68
2021/03/12 07:35:13;;;;;;;12.45;5.60;;;;;;;-1.07;100.00;98825.66;1672949;81;21251;-68
2021/03/12 07:37:45;;;;;;;12.33;6.20;;;;;;;-1.06;100.00;98814.47;1740833;81;21057;-67
2021/03/12 07:40:15;;;;;;;10.15;5.80;;;;;;;-1.03;100.00;98811.56;1743531;81;21010;-68
2021/03/12 07:42:45;;;;;;;17.45;7.55;;;;;;;-1.03;100.00;98821.92;1696579;81;21480;-68
2021/03/12 07:45:29;;;;;;;12.95;6.65;;;;;;;-1.03;100.00;98805.09;1740623;81;21022;-68
2021/03/12 07:48:15;;;;;;;15.45;7.12;;;;;;;-1.01;100.00;98808.62;1720722;82;21173;-70
2021/03/12 07:50:49;;;;;;;9.73;6.45;;;;;;;-1.02;100.00;98800.38;1753164;80;20939;-68
2021/03/12 07:53:20;;;;;;;12.30;7.37;;;;;;;-1.01;100.00;98809.03;1772392;80;20962;-67
2021/03/12 07:55:57;;;;;;;20.50;7.37;;;;;;;-0.99;100.00;98785.38;1721556;81;22208;-68
2021/03/12 07:58:53;;;;;;;10.13;6.78;;;;;;;-0.97;100.00;98776.83;1731579;79;21143;-66
2021/03/12 08:01:53;;;;;;;17.20;7.17;;;;;;;-0.97;100.00;98768.18;1769383;81;21001;-71
2021/03/12 08:04:35;;;;;;;13.18;6.90;;;;;;;-0.96;100.00;98763.05;1757074;80;21503;-70
2021/03/12 08:07:23;;;;;;;11.80;6.47;;;;;;;-0.97;100.00;98762.59;1707843;83;21046;-69
2021/03/12 08:09:55;;;;;;;17.95;6.80;;;;;;;-0.94;100.00;98754.48;1730182;81;21396;-70
2021/03/12 08:12:42;;;;;;;10.63;7.00;;;;;;;-0.91;100.00;98753.30;1767946;80;20958;-69
2021/03/12 08:15:32;;;;;;;14.70;6.95;;;;;;;-0.92;100.00;98748.53;1767973;81;21141;-69
2021/03/12 08:18:15;;;;;;;21.05;7.10;;;;;;;-0.89;100.00;98743.45;1767451;80;20933;-69
2021/03/12 08:20:48;;;;;;;14.35;6.78;;;;;;;-0.88;100.00;98728.80;1768981;80;21136;-69
2021/03/12 08:23:33;;;;;;;16.75;7.15;;;;;;;-0.83;100.00;98724.22;1709371;83;21399;-69
2021/03/12 08:26:08;;;;;;;14.03;6.80;;;;;;;-0.79;100.00;98722.20;1737969;81;21029;-70
2021/03/12 08:28:59;;;;;;;15.32;7.15;;;;;;;-0.78;100.00;98706.24;1739283;82;20952;-66
2021/03/12 08:31:43;;;;;;;14.53;6.10;;;;;;;-0.77;100.00;98702.41;1714507;81;20993;-70
2021/03/12 08:34:41;;;;;;;13.03;6.45;;;;;;;-0.77;100.00;98682.11;1739462;82;21007;-69
2021/03/12 08:37:33;;;;;;;12.10;6.58;;;;;;;-0.82;100.00;98692.32;1723505;81;21415;-69
2021/03/12 08:40:21;;;;;;;14.43;6.70;;;;;;;-0.81;100.00;98697.08;1737033;82;20972;-69
2021/03/12 08:43:14;;;;;;;12.93;6.42;;;;;;;-0.79;100.00;98663.05;1718358;81;21595;-69
2021/03/12 08:46:04;;;;;;;11.85;6.87;;;;;;;-0.76;100.00;98663.14;1720869;82;21020;-69
2021/03/12 08:48:37;;;;;;;26.27;6.95;;;;;;;-0.73;100.00;98655.47;1739217;81;20953;-69
2021/03/12 08:51:18;;;;;;;24.85;8.13;;;;;;;-0.69;100.00;98671.14;1709366;83;21406;-69
2021/03/12 08:54:00;;;;;;;13.00;7.05;;;;;;;-0.63;100.00;98653.61;1739212;82;21047;-69
2021/03/12 08:56:36;;;;;;;17.60;7.22;;;;;;;-0.56;100.00;98661.15;1740927;81;21045;-70
2021/03/12 08:59:08;;;;;;;16.02;7.20;;;;;;;-0.55;100.00;98641.77;1773718;79;20914;-70
2021/03/12 09:01:40;;;;;;;14.40;7.35;;;;;;;-0.51;100.00;98653.09;1730213;80;21534;-70
2021/03/12 09:04:32;;;;;;;12.82;7.47;;;;;;;-0.41;100.00;98644.79;1794237;78;23382;-70
2021/03/12 09:07:08;;;;;;;10.65;7.05;;;;;;;-0.40;100.00;98642.66;1779661;79;20891;-69
2021/03/12 09:10:02;;;;;;;13.38;7.75;;;;;;;-0.33;100.00;98667.91;1761084;80;21219;-70
2021/03/12 09:12:34;;;;;;;12.45;7.15;;;;;;;-0.31;100.00;98645.52;1752016;81;21554;-70
2021/03/12 09:15:12;;;;;;;11.93;7.78;;;;;;;-0.27;100.00;98643.47;1745882;81;20985;-70
2021/03/12 09:17:42;;;;;;;19.20;7.85;;;;;;;-0.24;100.00;98651.33;1713695;83;20930;-69
2021/03/12 09:20:17;;;;;;;13.93;7.85;;;;;;;-0.23;100.00;98653.50;1751958;81;21017;-69
2021/03/12 09:22:56;;;;;;;14.15;7.28;;;;;;;-0.19;100.00;98651.45;1731758;81;21385;-69
2021/03/12 09:25:30;;;;;;;14.87;7.97;;;;;;;-0.15;100.00;98645.11;1728239;81;20954;-71
2021/03/12 09:28:20;;;;;;;;;;;;;;;-0.10;100.00;98656.48;1703447;83;21888;-71
2021/03/12 09:30:52;;;;;;;12.30;8.03;;;;;;;-0.13;100.00;98655.52;1717491;82;20271;-72
2021/03/12 09:33:31;;;;;;;17.12;8.20;;;;;;;-0.14;100.00;98668.90;1714528;83;20944;-70
2021/03/12 09:36:27;;;;;;;12.78;8.40;;;;;;;-0.19;100.00;98664.42;1696462;82;21381;-69
2021/03/12 09:39:21;;;;;;;14.47;9.00;;;;;;;-0.23;100.00;98673.82;1671080;85;21121;-70
2021/03/12 09:42:03;;;;;;;18.25;8.88;;;;;;;-0.27;100.00;98690.13;1675410;84;21153;-70
2021/03/12 09:44:33;;;;;;;13.08;7.80;;;;;;;-0.30;100.00;98696.92;1713287;83;20898;-70
2021/03/12 09:47:10;;;;;;;12.25;8.08;;;;;;;-0.35;100.00;98679.95;1695296;84;20948;-70
2021/03/12 09:49:45;;;;;;;19.65;8.55;;;;;;;-0.42;100.00;98689.26;1695297;83;21403;-69
2021/03/12 09:52:17;;;;;;;14.80;8.40;;;;;;;-0.48;100.00;98686.87;1700283;83;20978;-70
2021/03/12 09:54:50;;;;;;;11.93;7.83;;;;;;;-0.46;100.00;98686.11;1686553;83;20963;-70
2021/03/12 14:08:40;;;;;;;9.50;5.90;;;;;;;-0.61;100.00;98491.77;1918385;73;22781;-67
2021/03/12 14:11:10;;;;;;;7.62;5.12;;;;;;;-0.67;100.00;98495.95;1895308;74;20898;-71
2021/03/12 14:13:39;;;;;;;8.95;5.47;;;;;;;-0.69;100.00;98487.26;1887083;74;22076;-71
2021/03/12 14:16:14;;;;;;;7.53;5.15;;;;;;;-0.65;100.00;98493.40;1891699;75;21007;-71
2021/03/12 14:18:44;;;;;;;7.60;4.75;;;;;;;-0.64;100.00;98491.27;1892292;75;21054;-72
2021/03/12 14:21:15;;;;;;;7.10;4.83;;;;;;;-0.64;100.00;98480.91;1890056;75;21080;-72
2021/03/12 14:23:45;;;;;;;9.70;5.22;;;;;;;-0.67;100.00;98472.64;1892230;75;20967;-71
2021/03/12 14:26:14;;;;;;;8.85;5.10;;;;;;;-0.66;100.00;98474.81;1888815;75;21250;-69
2021/03/12 14:29:05;;;;;;;7.15;4.83;;;;;;;-0.66;100.00;98476.11;1884050;75;21036;-70
2021/03/12 14:31:36;;;;;;;6.72;4.92;;;;;;;-0.61;100.00;98488.77;1885614;75;21012;-71
2021/03/12 14:34:07;;;;;;;6.75;5.58;;;;;;;-0.63;100.00;98480.08;1805929;78;21531;-72
2021/03/12 14:36:38;;;;;;;9.78;5.37;;;;;;;-0.62;100.00;98475.77;1811275;77;21007;-72
2021/03/12 14:39:08;;;;;;;6.60;4.92;;;;;;;-0.62;100.00;98478.36;1852750;77;21369;-72
2021/03/12 14:41:38;;;;;;;7.58;4.60;;;;;;;-0.61;100.00;98479.70;1805661;79;21136;-72
2021/03/12 14:44:09;;;;;;;12.50;4.67;;;;;;;-0.60;100.00;98483.16;1805607;77;21117;-72
2021/03/12 14:46:43;;;;;;;8.45;5.40;;;;;;;-0.60;100.00;98484.05;1757596;78;21160;-69
2021/03/12 14:49:17;;;;;;;10.88;5.15;;;;;;;-0.57;100.00;98483.24;1808009;77;21114;-67
2021/03/12 14:51:49;;;;;;;11.00;4.72;;;;;;;-0.55;100.00;98481.58;1813149;78;21155;-71
2021/03/12 14:54:18;;;;;;;7.70;4.92;;;;;;;-0.50;100.00;98479.98;1815402;77;21234;-68
2021/03/12 14:56:51;;;;;;;11.88;5.22;;;;;;;-0.44;100.00;98477.58;1817630;77;21013;-68
2021/03/12 14:59:21;;;;;;;8.05;5.40;;;;;;;-0.47;100.00;98482.69;1812441;77;21034;-71
2021/03/12 15:01:52;;;;;;;5.87;4.75;;;;;;;-0.46;100.00;98486.61;1820858;78;21130;-71
2021/03/12 15:04:24;;;;;;;5.78;4.58;;;;;;;-0.46;100.00;98484.44;1811461;78;21211;-71
2021/03/12 15:06:57;;;;;;;5.12;4.60;;;;;;;-0.47;100.00;98486.16;1806777;78;21192;-72
2021/03/12 15:09:29;;;;;;;6.35;5.12;;;;;;;-0.44;100.00;98484.94;1778784;78;20936;-72
2021/03/12 15:11:59;;;;;;;6.30;4.67;;;;;;;-0.42;100.00;98487.15;1797923;78;21652;-70
2021/03/12 15:14:29;;;;;;;6.37;4.42;;;;;;;-0.42;100.00;98488.86;1811451;78;21100;-69
2021/03/12 15:16:59;;;;;;;5.05;4.30;;;;;;;-0.42;100.00;98490.16;1806936;78;22246;-71
2021/03/12 15:19:30;;;;;;;9.38;5.00;;;;;;;-0.43;100.00;98486.70;1811317;77;21159;-71
2021/03/12 15:22:00;;;;;;;5.55;4.92;;;;;;;-0.42;100.00;98490.16;1776244;77;21571;-70
2021/03/12 15:24:30;;;;;;;6.05;4.80;;;;;;;-0.41;100.00;98485.44;1822269;77;20994;-69
2021/03/12 15:27:01;;;;;;;5.15;4.22;;;;;;;-0.42;100.00;98484.56;1776498;78;20911;-72
2021/03/12 15:29:32;;;;;;;10.35;4.80;;;;;;;-0.42;100.00;98489.74;1770719;80;21370;-75
2021/03/12 15:32:07;;;;;;;5.45;4.40;;;;;;;-0.39;100.00;98496.30;1841752;77;21150;-77
2021/03/12 15:34:41;;;;;;;5.22;4.72;;;;;;;-0.41;100.00;98495.80;1804926;77;20941;-76
2021/03/12 15:37:13;;;;;;;5.00;4.50;;;;;;;-0.42;100.00;98491.45;1803786;77;21059;-76
2021/03/12 15:40:03;;;;;;;5.22;4.33;;;;;;;-0.40;100.00;98495.84;1822701;77;20920;-77
2021/03/12 15:42:34;;;;;;;6.05;4.95;;;;;;;-0.39;100.00;98496.72;1799277;77;21409;-76
2021/03/12 15:45:06;;;;;;;5.80;4.90;;;;;;;-0.42;100.00;98490.16;1798697;78;20987;-76
2021/03/12 15:47:37;;;;;;;5.95;4.83;;;;;;;-0.44;100.00;98497.89;1774760;79;21132;-77
2021/03/12 15:50:14;;;;;;;5.70;4.80;;;;;;;-0.46;100.00;98495.68;1823102;77;21432;-77
2021/03/12 15:52:49;;;;;;;6.28;5.10;;;;;;;-0.48;100.00;98488.25;1780025;78;20983;-78
2021/03/12 15:55:23;;;;;;;5.83;4.90;;;;;;;-0.48;100.00;98492.55;1829057;78;21659;-76
2021/03/12 15:57:53;;;;;;;5.70;4.95;;;;;;;-0.49;100.00;98492.09;1817133;78;20936;-77
2021/03/12 16:00:25;;;;;;;6.58;4.70;;;;;;;-0.50;100.00;98483.87;1791729;78;20924;-78
2021/03/12 16:02:55;;;;;;;7.12;4.70;;;;;;;-0.50;100.00;98489.92;1777932;79;21039;-78
2021/03/12 16:05:28;;;;;;;5.62;5.03;;;;;;;-0.51;100.00;98491.18;1778795;79;20983;-77
2021/03/12 16:08:01;;;;;;;6.67;5.33;;;;;;;-0.52;100.00;98495.91;1769611;78;21416;-77